createdAt,value
2022-08-16T00:01:02.390Z,19.30
2022-08-16T00:06:08.395Z,19.30
2022-08-16T00:11:15.958Z,19.20
2022-08-16T00:17:01.608Z,19.20
2022-08-16T00:21:43.479Z,19.30
2022-08-16T00:26:46.062Z,19.30
2022-08-16T00:32:00.805Z,19.20
2022-08-16T00:37:07.965Z,19.00
2022-08-16T00:42:12.180Z,18.90
2022-08-16T00:47:18.279Z,18.70
2022-08-16T00:52:29.710Z,19.00
2022-08-16T00:57:59.959Z,18.80
2022-08-16T01:02:59.744Z,18.60
2022-08-16T01:08:35.433Z,18.40
2022-08-16T01:13:30.545Z,18.60
2022-08-16T01:18:42.435Z,18.90
2022-08-16T01:24:51.754Z,18.90
2022-08-16T01:30:04.770Z,18.70
2022-08-16T01:35:35.061Z,18.70
2022-08-16T01:40:40.301Z,18.70
2022-08-16T01:45:43.874Z,18.50
2022-08-16T01:51:09.788Z,18.40
2022-08-16T01:56:23.369Z,18.20
2022-08-16T02:01:29.452Z,17.90
2022-08-16T02:06:38.013Z,18.00
2022-08-16T02:11:53.515Z,17.70
2022-08-16T02:16:59.379Z,17.50
2022-08-16T02:22:08.332Z,17.70
2022-08-16T02:27:27.438Z,17.70
2022-08-16T02:33:02.681Z,17.60
2022-08-16T02:38:01.803Z,17.80
2022-08-16T02:43:13.091Z,17.90
2022-08-16T02:48:28.944Z,18.00
2022-08-16T02:53:37.283Z,18.10
2022-08-16T02:58:41.669Z,18.10
2022-08-16T03:04:30.132Z,18.10
2022-08-16T03:09:14.931Z,17.90
2022-08-16T03:14:24.759Z,17.50
2022-08-16T03:19:52.815Z,17.20
2022-08-16T03:25:02.166Z,17.70
2022-08-16T03:30:17.641Z,18.10
2022-08-16T03:35:33.689Z,18.30
2022-08-16T03:40:49.237Z,18.40
2022-08-16T03:45:55.404Z,18.40
2022-08-16T03:51:04.085Z,18.30
2022-08-16T03:56:19.932Z,18.10
2022-08-16T04:01:29.176Z,18.10
2022-08-16T04:06:32.924Z,18.10
2022-08-16T04:11:37.750Z,18.20
2022-08-16T04:16:40.855Z,18.50
2022-08-16T04:22:13.097Z,19.20
2022-08-16T04:27:24.481Z,20.20
2022-08-16T04:32:31.806Z,20.90
2022-08-16T04:37:42.207Z,21.30
2022-08-16T04:43:05.061Z,21.90
2022-08-16T04:48:10.391Z,22.60
2022-08-16T04:53:33.525Z,23.10
2022-08-16T04:58:44.515Z,24.20
2022-08-16T05:04:00.468Z,24.70
2022-08-16T05:09:06.488Z,25.00
2022-08-16T05:14:09.266Z,25.20
2022-08-16T05:19:17.340Z,25.00
2022-08-16T05:24:39.891Z,25.20
2022-08-16T05:29:57.878Z,25.80
2022-08-16T05:35:10.736Z,26.20
2022-08-16T05:40:17.587Z,26.30
2022-08-16T05:45:23.288Z,26.90
2022-08-16T05:50:34.111Z,27.10
2022-08-16T05:55:40.773Z,27.10
2022-08-16T06:00:44.168Z,25.70
2022-08-16T06:05:51.558Z,25.50
2022-08-16T06:11:09.562Z,25.30
2022-08-16T06:16:18.274Z,25.70
2022-08-16T06:21:23.917Z,26.00
2022-08-16T06:26:36.980Z,26.10
2022-08-16T06:31:48.991Z,26.40
2022-08-16T06:36:59.178Z,26.60
2022-08-16T06:42:03.789Z,26.30
2022-08-16T06:47:53.906Z,26.50
2022-08-16T06:52:57.177Z,26.40
2022-08-16T06:58:02.235Z,26.30
2022-08-16T07:03:26.822Z,26.60
2022-08-16T07:08:32.301Z,26.50
2022-08-16T07:14:00.637Z,26.60
2022-08-16T07:19:02.993Z,26.90
2022-08-16T07:24:11.109Z,27.00
2022-08-16T07:29:34.310Z,27.30
2022-08-16T07:34:48.219Z,26.90
2022-08-16T07:39:54.687Z,26.70
2022-08-16T07:44:58.169Z,27.10
2022-08-16T07:50:05.382Z,27.80
2022-08-16T07:55:11.128Z,28.00
2022-08-16T08:00:18.419Z,28.00
2022-08-16T08:05:35.702Z,28.90
2022-08-16T08:10:41.597Z,29.10
2022-08-16T08:15:52.423Z,28.70
2022-08-16T08:20:59.484Z,29.10
2022-08-16T08:26:10.026Z,28.70
2022-08-16T08:31:20.656Z,28.20
2022-08-16T08:36:33.467Z,28.60
2022-08-16T08:41:43.310Z,28.30
2022-08-16T08:47:00.129Z,27.90
2022-08-16T08:52:08.024Z,27.90
2022-08-16T08:57:13.339Z,29.00
2022-08-16T09:02:33.839Z,28.70
2022-08-16T09:08:00.924Z,29.00
2022-08-16T09:13:11.656Z,29.30
2022-08-16T09:18:25.234Z,29.30
2022-08-16T09:23:36.532Z,29.70
2022-08-16T09:29:16.880Z,30.10
2022-08-16T09:34:05.189Z,30.00
2022-08-16T09:39:08.162Z,30.40
2022-08-16T09:45:12.491Z,31.30
2022-08-16T09:49:43.173Z,31.40
2022-08-16T09:54:54.667Z,31.00
2022-08-16T09:59:58.014Z,30.00
2022-08-16T10:05:01.049Z,29.40
2022-08-16T10:10:07.461Z,29.10
2022-08-16T10:15:17.807Z,29.10
2022-08-16T10:20:21.064Z,30.30
2022-08-16T10:27:20.023Z,29.80
2022-08-16T10:30:48.092Z,30.50
2022-08-16T10:36:06.339Z,30.50
2022-08-16T10:41:16.147Z,30.20
2022-08-16T10:46:39.437Z,30.50
2022-08-16T10:52:02.019Z,30.10
2022-08-16T10:57:05.619Z,30.70
2022-08-16T11:02:57.880Z,30.50
2022-08-16T11:07:52.186Z,30.30
2022-08-16T11:12:56.727Z,30.60
2022-08-16T11:23:23.195Z,30.70
2022-08-16T11:33:52.507Z,30.70
2022-08-16T11:38:58.680Z,30.70
2022-08-16T11:44:01.908Z,30.50
2022-08-16T11:49:11.202Z,29.80
2022-08-16T11:54:20.388Z,30.20
2022-08-16T11:59:28.776Z,30.40
2022-08-16T12:04:34.000Z,30.50
2022-08-16T12:09:41.238Z,30.30
2022-08-16T12:14:46.007Z,30.40
2022-08-16T12:19:48.913Z,30.40
2022-08-16T12:24:53.424Z,30.40
2022-08-16T12:29:58.633Z,30.50
2022-08-16T12:35:01.828Z,30.60
2022-08-16T12:40:19.796Z,30.90
2022-08-16T12:45:31.141Z,31.00
2022-08-16T12:50:34.276Z,30.70
2022-08-16T12:55:41.845Z,30.40
2022-08-16T13:00:44.800Z,30.30
2022-08-16T13:05:55.069Z,30.30
2022-08-16T13:11:00.539Z,30.60
2022-08-16T13:16:15.449Z,30.40
2022-08-16T13:21:23.735Z,30.20
2022-08-16T13:26:27.945Z,30.00
2022-08-16T13:31:30.395Z,29.70
2022-08-16T13:36:48.117Z,29.90
2022-08-16T13:41:54.106Z,30.20
2022-08-16T13:46:57.473Z,30.30
2022-08-16T13:52:00.335Z,30.40
2022-08-16T13:57:03.536Z,30.20
2022-08-16T14:02:08.668Z,29.80
2022-08-16T14:07:24.532Z,29.80
2022-08-16T14:12:30.596Z,30.00
2022-08-16T14:18:01.827Z,29.80
2022-08-16T14:22:56.229Z,29.70
2022-08-16T14:27:59.289Z,29.20
2022-08-16T14:33:04.340Z,29.00
2022-08-16T14:38:09.326Z,28.80
2022-08-16T14:43:11.893Z,28.30
2022-08-16T14:48:25.099Z,28.30
2022-08-16T14:53:32.634Z,28.30
2022-08-16T14:58:36.811Z,28.40
2022-08-16T15:03:44.728Z,27.40
2022-08-16T15:08:47.639Z,26.10
2022-08-16T15:13:50.181Z,25.40
2022-08-16T15:18:54.509Z,25.40
2022-08-16T15:23:58.733Z,25.10
2022-08-16T15:29:01.535Z,25.10
2022-08-16T15:34:04.114Z,25.30
2022-08-16T15:39:31.823Z,25.70
2022-08-16T15:44:44.748Z,26.10
2022-08-16T15:49:56.382Z,26.50
2022-08-16T15:55:13.249Z,26.60
2022-08-16T16:00:27.885Z,26.80
2022-08-16T16:05:30.459Z,26.90
2022-08-16T16:10:37.475Z,26.80
2022-08-16T16:15:47.271Z,27.20
2022-08-16T16:20:54.186Z,27.40
2022-08-16T16:25:57.682Z,27.20
2022-08-16T16:31:01.646Z,26.80
2022-08-16T16:36:07.023Z,26.40
2022-08-16T16:41:09.919Z,26.50
2022-08-16T16:46:41.216Z,26.70
2022-08-16T16:51:40.576Z,26.50
2022-08-16T16:56:49.928Z,26.30
2022-08-16T17:01:57.586Z,25.90
2022-08-16T17:07:03.619Z,26.00
2022-08-16T17:12:06.378Z,25.40
2022-08-16T17:17:13.396Z,24.80
2022-08-16T17:22:20.059Z,24.50
2022-08-16T17:27:32.585Z,24.10
2022-08-16T17:32:47.330Z,23.60
2022-08-16T17:37:52.534Z,22.90
2022-08-16T17:42:57.641Z,22.60
2022-08-16T17:48:00.250Z,22.40
2022-08-16T17:53:06.146Z,22.50
2022-08-16T17:58:22.902Z,22.40
2022-08-16T18:04:02.865Z,22.30
2022-08-16T18:09:03.866Z,22.10
2022-08-16T18:14:06.916Z,21.90
2022-08-16T18:19:10.685Z,21.70
2022-08-16T18:24:15.042Z,21.50
2022-08-16T18:29:18.188Z,21.30
2022-08-16T18:34:20.857Z,21.10
2022-08-16T18:39:23.555Z,20.90
2022-08-16T18:44:30.126Z,20.90
2022-08-16T18:49:36.891Z,20.80
2022-08-16T18:55:02.043Z,20.80
2022-08-16T19:00:02.335Z,20.60
2022-08-16T19:05:05.373Z,20.60
2022-08-16T19:10:09.116Z,20.90
2022-08-16T19:15:16.185Z,20.40
2022-08-16T19:20:23.879Z,20.20
2022-08-16T19:25:46.396Z,20.20
2022-08-16T19:30:51.294Z,20.10
2022-08-16T19:35:53.860Z,20.00
2022-08-16T19:40:56.425Z,19.90
2022-08-16T19:45:59.083Z,19.80
2022-08-16T19:51:01.573Z,19.80
2022-08-16T19:56:04.840Z,19.70
2022-08-16T20:01:07.516Z,19.60
2022-08-16T20:06:10.443Z,19.60
2022-08-16T20:11:15.476Z,19.50
2022-08-16T20:16:18.052Z,19.50
2022-08-16T20:21:20.540Z,19.60
2022-08-16T20:26:24.783Z,19.40
2022-08-16T20:31:27.415Z,19.30
2022-08-16T20:36:30.252Z,19.20
2022-08-16T20:41:32.792Z,19.20
2022-08-16T20:46:35.286Z,19.40
2022-08-16T20:51:49.926Z,19.30
2022-08-16T20:56:54.431Z,19.10
2022-08-16T21:01:58.391Z,18.90
2022-08-16T21:07:00.950Z,18.70
2022-08-16T21:12:11.391Z,18.60
2022-08-16T21:17:17.194Z,18.60
2022-08-16T21:22:22.825Z,18.60
2022-08-16T21:27:25.270Z,18.60
2022-08-16T21:32:35.375Z,18.60
2022-08-16T21:37:39.705Z,18.60
2022-08-16T21:42:43.228Z,18.50
2022-08-16T21:47:45.657Z,18.50
2022-08-16T21:52:48.218Z,18.40
2022-08-16T21:57:50.686Z,18.40
2022-08-16T22:02:58.168Z,18.40
2022-08-16T22:08:01.751Z,18.40
2022-08-16T22:13:06.671Z,18.40
2022-08-16T22:18:09.391Z,18.40
2022-08-16T22:23:23.721Z,18.30
2022-08-16T22:28:26.472Z,18.30
2022-08-16T22:33:29.086Z,18.20
2022-08-16T22:38:56.228Z,18.10
2022-08-16T22:43:56.071Z,18.10
2022-08-16T22:48:58.933Z,18.00
2022-08-16T22:54:46.387Z,17.90
2022-08-16T22:59:25.314Z,18.00
2022-08-16T23:04:30.233Z,18.00
2022-08-16T23:09:33.091Z,17.90
2022-08-16T23:14:35.560Z,17.80
2022-08-16T23:19:38.240Z,17.70
2022-08-16T23:24:56.327Z,17.70
2022-08-16T23:30:00.181Z,17.60
2022-08-16T23:35:04.060Z,17.60
2022-08-16T23:40:11.685Z,17.50
2022-08-16T23:45:14.304Z,17.60
2022-08-16T23:50:17.184Z,17.60
2022-08-16T23:55:19.785Z,17.50
